Time;durP1;ratioP1;P1;durP2;ratioP2;P2;SDS_P1;SDS_P2;PMS_P1;PMS_P2;Temp;Humidity;BMP_temperature;BMP_pressure;BME280_temperature;BME280_humidity;BME280_pressure;Samples;Min_cycle;Max_cycle;Signal;HPM_P1;HPM_P2
2023/10/03 00:00:49;;;;;;;;;;;17.70;55.00;;;;;;5041360;27;93968;-52
2023/10/03 00:03:15;;;;;;;;;;;17.70;55.00;;;;;;5037753;28;93576;-51
2023/10/03 00:05:42;;;;;;;;;;;17.60;54.90;;;;;;5041741;28;92156;-48
2023/10/03 00:08:08;;;;;;;;;;;17.60;54.90;;;;;;5041079;27;92854;-52
2023/10/03 00:10:38;;;;;;;;;;;17.60;54.90;;;;;;5043086;27;94605;-48
2023/10/03 00:13:07;;;;;;;;;;;17.60;54.40;;;;;;5041199;28;93577;-53
2023/10/03 00:15:32;;;;;;;;;;;17.60;54.50;;;;;;5037309;28;93202;-54
2023/10/03 00:17:58;;;;;;;;;;;17.60;55.00;;;;;;5041468;28;92088;-54
2023/10/03 00:20:24;;;;;;;;;;;17.60;54.90;;;;;;5041267;28;94205;-51
2023/10/03 00:22:50;;;;;;;;;;;17.60;54.90;;;;;;5040441;28;92917;-51
2023/10/03 00:25:21;;;;;;;;;;;17.50;54.90;;;;;;5040874;27;92185;-53
2023/10/03 00:27:55;;;;;;;;;;;17.50;54.80;;;;;;5041531;27;93795;-50
2023/10/03 00:30:23;;;;;;;;;;;17.50;54.80;;;;;;5040462;27;94461;-50
2023/10/03 00:32:49;;;;;;;;;;;17.50;54.80;;;;;;5043993;27;92255;-47
2023/10/03 00:35:15;;;;;;;;;;;17.50;54.90;;;;;;5039659;27;94371;-52
2023/10/03 00:37:45;;;;;;;;;;;17.50;54.80;;;;;;5040450;27;92458;-54
2023/10/03 00:40:27;;;;;;;;;;;17.50;54.90;;;;;;5039734;27;94497;-51
2023/10/03 00:43:01;;;;;;;;;;;17.40;54.90;;;;;;5040332;27;93408;-51
2023/10/03 00:45:27;;;;;;;;;;;17.50;54.90;;;;;;5040590;27;92705;-50
2023/10/03 00:47:53;;;;;;;;;;;17.40;54.90;;;;;;5040455;27;92742;-51
2023/10/03 00:50:20;;;;;;;;;;;17.40;54.80;;;;;;5039852;28;94882;-48
2023/10/03 00:52:53;;;;;;;;;;;17.40;54.90;;;;;;5040673;27;91538;-50
2023/10/03 00:55:19;;;;;;;;;;;17.40;54.80;;;;;;5039464;28;93446;-50
2023/10/03 00:57:44;;;;;;;;;;;17.40;54.80;;;;;;5039922;27;92117;-54
2023/10/03 01:00:17;;;;;;;;;;;17.40;54.80;;;;;;5039925;28;92997;-49
2023/10/03 01:02:49;;;;;;;;;;;17.40;54.80;;;;;;5039695;27;93251;-49
2023/10/03 01:05:16;;;;;;;;;;;17.30;54.80;;;;;;5040387;28;92142;-50
2023/10/03 01:07:44;;;;;;;;;;;17.30;54.90;;;;;;5040141;27;93860;-51
2023/10/03 01:10:12;;;;;;;;;;;17.30;54.80;;;;;;5039619;28;93293;-50
2023/10/03 01:12:38;;;;;;;;;;;17.30;54.80;;;;;;5039239;28;92256;-50
2023/10/03 01:15:10;;;;;;;;;;;17.30;54.70;;;;;;5040389;28;92673;-51
2023/10/03 01:17:37;;;;;;;;;;;17.30;54.70;;;;;;5043255;27;93713;-54
2023/10/03 01:20:08;;;;;;;;;;;17.30;54.80;;;;;;5040115;27;93296;-52
2023/10/03 01:22:37;;;;;;;;;;;17.30;54.80;;;;;;5039581;27;92901;-49
2023/10/03 01:25:04;;;;;;;;;;;17.30;54.80;;;;;;5039160;27;93269;-50
2023/10/03 01:27:30;;;;;;;;;;;17.20;54.70;;;;;;5039896;27;95681;-51
2023/10/03 01:29:55;;;;;;;;;;;17.20;54.80;;;;;;5039671;28;93495;-53
2023/10/03 01:32:21;;;;;;;;;;;17.20;54.70;;;;;;5039755;27;92212;-48
2023/10/03 01:34:47;;;;;;;;;;;17.20;54.70;;;;;;5040195;27;92660;-48
2023/10/03 01:37:14;;;;;;;;;;;17.20;54.60;;;;;;5042703;28;93428;-50
2023/10/03 01:39:39;;;;;;;;;;;17.20;54.70;;;;;;5042545;27;94091;-52
2023/10/03 01:42:06;;;;;;;;;;;17.20;54.60;;;;;;5039289;28;92849;-52
2023/10/03 01:44:32;;;;;;;;;;;17.20;54.60;;;;;;5039804;27;92314;-51
2023/10/03 01:46:58;;;;;;;;;;;17.10;55.20;;;;;;5039716;27;92621;-50
2023/10/03 01:49:24;;;;;;;;;;;17.10;54.70;;;;;;5038602;27;94432;-50
2023/10/03 01:51:49;;;;;;;;;;;17.20;54.70;;;;;;5039478;27;92264;-50
2023/10/03 01:54:15;;;;;;;;;;;17.10;54.60;;;;;;5035432;28;92704;-53
2023/10/03 01:56:41;;;;;;;;;;;17.10;54.60;;;;;;5038384;27;94413;-54
2023/10/03 01:59:07;;;;;;;;;;;17.10;54.70;;;;;;5042443;27;92585;-52
2023/10/03 02:01:33;;;;;;;;;;;17.00;54.60;;;;;;5038020;27;94829;-51
2023/10/03 02:03:59;;;;;;;;;;;17.10;54.60;;;;;;5039421;27;92172;-49
2023/10/03 02:06:25;;;;;;;;;;;17.00;54.60;;;;;;5039925;28;92487;-49
2023/10/03 02:08:50;;;;;;;;;;;17.00;54.50;;;;;;5037227;27;94414;-48
2023/10/03 02:11:16;;;;;;;;;;;17.00;54.50;;;;;;5039193;27;92172;-53
2023/10/03 02:13:42;;;;;;;;;;;17.00;54.50;;;;;;5038724;28;93006;-48
2023/10/03 02:16:10;;;;;;;;;;;17.00;54.50;;;;;;5038792;27;93518;-50
2023/10/03 02:18:36;;;;;;;;;;;17.00;54.60;;;;;;5039059;27;92160;-48
2023/10/03 02:21:02;;;;;;;;;;;16.90;54.50;;;;;;5042000;28;92685;-53
2023/10/03 02:23:27;;;;;;;;;;;16.90;54.50;;;;;;5039211;27;92216;-52
2023/10/03 02:25:57;;;;;;;;;;;16.90;54.50;;;;;;5038438;27;94033;-48
2023/10/03 02:28:26;;;;;;;;;;;16.90;54.50;;;;;;5035492;28;93254;-51
2023/10/03 02:30:52;;;;;;;;;;;16.90;54.50;;;;;;5039268;27;91408;-50
2023/10/03 02:33:18;;;;;;;;;;;16.90;54.50;;;;;;5039140;28;92117;-50
2023/10/03 02:35:47;;;;;;;;;;;16.90;54.50;;;;;;5038295;28;94554;-51
2023/10/03 02:38:24;;;;;;;;;;;16.90;54.50;;;;;;5034511;28;93143;-49
2023/10/03 02:40:59;;;;;;;;;;;16.90;54.50;;;;;;5038233;27;94715;-50
2023/10/03 02:43:28;;;;;;;;;;;16.90;54.40;;;;;;5041127;27;93182;-51
2023/10/03 02:45:53;;;;;;;;;;;16.90;54.50;;;;;;5038957;27;92393;-50
2023/10/03 02:48:21;;;;;;;;;;;16.80;54.50;;;;;;5038364;28;93388;-51
2023/10/03 02:50:47;;;;;;;;;;;16.80;54.40;;;;;;5038681;28;92141;-51
2023/10/03 02:53:15;;;;;;;;;;;16.80;54.30;;;;;;5038849;27;92578;-52
2023/10/03 02:55:44;;;;;;;;;;;16.80;54.40;;;;;;5034111;28;94167;-50
2023/10/03 02:58:10;;;;;;;;;;;16.70;54.40;;;;;;5037971;27;92329;-51
2023/10/03 03:00:37;;;;;;;;;;;16.70;54.40;;;;;;5038270;28;93800;-47
2023/10/03 03:03:06;;;;;;;;;;;16.70;54.40;;;;;;5036819;28;95613;-50
2023/10/03 03:05:35;;;;;;;;;;;16.80;54.40;;;;;;5041405;27;92022;-51
2023/10/03 03:08:10;;;;;;;;;;;16.70;54.30;;;;;;5034367;28;93209;-53
2023/10/03 03:10:38;;;;;;;;;;;16.70;54.30;;;;;;5038068;28;93237;-54
2023/10/03 03:13:05;;;;;;;;;;;16.70;54.30;;;;;;5038089;28;92248;-50
2023/10/03 03:15:31;;;;;;;;;;;16.70;54.30;;;;;;5037706;27;93217;-51
2023/10/03 03:17:57;;;;;;;;;;;16.70;54.40;;;;;;5038496;28;92166;-50
2023/10/03 03:20:27;;;;;;;;;;;16.70;54.30;;;;;;5039969;27;92638;-51
2023/10/03 03:22:53;;;;;;;;;;;16.60;54.30;;;;;;5041449;27;94631;-51
2023/10/03 03:25:42;;;;;;;;;;;16.70;54.30;;;;;;5041187;27;92206;-50
2023/10/03 03:28:12;;;;;;;;;;;16.60;54.30;;;;;;5041260;28;93532;-51
2023/10/03 03:30:45;;;;;;;;;;;16.60;54.30;;;;;;5042040;27;92192;-51
2023/10/03 03:33:19;;;;;;;;;;;16.60;54.20;;;;;;5041639;28;93939;-49
2023/10/03 03:35:46;;;;;;;;;;;16.60;54.30;;;;;;5041042;27;94638;-50
2023/10/03 03:38:15;;;;;;;;;;;16.50;54.30;;;;;;5036558;28;92176;-51
2023/10/03 03:40:45;;;;;;;;;;;16.60;54.30;;;;;;5040742;27;94456;-50
2023/10/03 03:43:12;;;;;;;;;;;16.50;54.20;;;;;;5040601;27;93444;-48
2023/10/03 03:45:37;;;;;;;;;;;16.50;54.20;;;;;;5041936;27;91444;-49
2023/10/03 03:48:06;;;;;;;;;;;16.50;54.20;;;;;;5044228;27;92288;-54
2023/10/03 03:50:31;;;;;;;;;;;16.50;54.20;;;;;;5037956;28;92295;-48
2023/10/03 03:52:58;;;;;;;;;;;16.50;54.20;;;;;;5041073;27;93106;-53
2023/10/03 03:55:29;;;;;;;;;;;16.50;54.20;;;;;;5040617;28;93538;-48
2023/10/03 03:57:59;;;;;;;;;;;16.50;54.30;;;;;;5040885;28;92135;-53
2023/10/03 04:00:28;;;;;;;;;;;16.50;54.20;;;;;;5037711;28;92596;-52
2023/10/03 04:02:57;;;;;;;;;;;16.50;54.30;;;;;;5040036;27;95109;-51
2023/10/03 04:05:22;;;;;;;;;;;16.40;54.20;;;;;;5041402;27;92145;-50
2023/10/03 04:07:48;;;;;;;;;;;16.40;54.30;;;;;;5041363;27;92326;-52
2023/10/03 04:10:14;;;;;;;;;;;16.40;54.30;;;;;;5044403;28;92496;-50
2023/10/03 04:12:43;;;;;;;;;;;16.40;54.30;;;;;;5040280;27;92194;-50
2023/10/03 04:15:12;;;;;;;;;;;16.40;54.30;;;;;;5038266;27;93467;-52
2023/10/03 04:17:41;;;;;;;;;;;16.30;54.20;;;;;;5040459;27;93157;-51
2023/10/03 04:20:19;;;;;;;;;;;16.30;54.20;;;;;;5040971;27;93446;-49
2023/10/03 04:22:46;;;;;;;;;;;16.30;54.20;;;;;;5037351;28;93498;-54
2023/10/03 04:25:18;;;;;;;;;;;16.30;54.20;;;;;;5040463;27;92625;-52
2023/10/03 04:27:43;;;;;;;;;;;16.30;54.20;;;;;;5039706;27;92948;-52
2023/10/03 04:30:09;;;;;;;;;;;16.30;54.20;;;;;;5036924;27;93753;-48
2023/10/03 04:32:35;;;;;;;;;;;16.30;54.20;;;;;;5042904;27;92217;-50
2023/10/03 04:35:00;;;;;;;;;;;16.20;54.20;;;;;;5040705;27;92516;-49
2023/10/03 04:37:26;;;;;;;;;;;16.20;54.20;;;;;;5041259;27;92093;-50
2023/10/03 04:39:51;;;;;;;;;;;16.20;54.10;;;;;;5036118;27;93522;-50
2023/10/03 04:42:17;;;;;;;;;;;16.20;54.10;;;;;;5038339;28;95732;-52
2023/10/03 04:44:43;;;;;;;;;;;16.30;54.20;;;;;;5040013;27;93170;-49
2023/10/03 04:47:11;;;;;;;;;;;16.20;54.20;;;;;;5039005;27;92748;-54
2023/10/03 04:49:37;;;;;;;;;;;16.20;54.10;;;;;;5039153;27;94001;-47
2023/10/03 04:52:07;;;;;;;;;;;16.20;54.20;;;;;;5040871;27;93007;-52
2023/10/03 04:54:33;;;;;;;;;;;16.20;54.20;;;;;;5041403;27;94255;-49
2023/10/03 04:56:58;;;;;;;;;;;16.20;54.20;;;;;;5036088;27;93968;-52
2023/10/03 04:59:25;;;;;;;;;;;16.20;54.20;;;;;;5040448;28;92447;-50
2023/10/03 05:01:50;;;;;;;;;;;16.10;54.10;;;;;;5036118;27;93203;-49
2023/10/03 05:04:16;;;;;;;;;;;16.10;54.10;;;;;;5039081;27;93209;-54
2023/10/03 05:06:43;;;;;;;;;;;16.10;54.20;;;;;;5035242;27;94844;-52
2023/10/03 05:09:08;;;;;;;;;;;16.10;54.20;;;;;;5040199;27;92995;-50
2023/10/03 05:11:34;;;;;;;;;;;16.10;54.10;;;;;;5040082;27;92147;-50
2023/10/03 05:14:00;;;;;;;;;;;16.10;54.10;;;;;;5039655;27;94251;-52
2023/10/03 05:16:26;;;;;;;;;;;16.10;54.10;;;;;;5038920;27;94168;-52
2023/10/03 05:18:51;;;;;;;;;;;16.10;54.00;;;;;;5040573;28;94348;-49
2023/10/03 05:21:17;;;;;;;;;;;16.10;54.10;;;;;;5039684;27;93484;-50
2023/10/03 05:23:43;;;;;;;;;;;16.10;54.00;;;;;;5041723;27;91466;-51
2023/10/03 05:26:08;;;;;;;;;;;16.00;54.10;;;;;;5036392;27;92414;-52
2023/10/03 05:28:37;;;;;;;;;;;16.00;54.10;;;;;;5039030;28;93723;-51
2023/10/03 05:31:03;;;;;;;;;;;16.00;54.10;;;;;;5040973;27;93072;-52
2023/10/03 05:33:28;;;;;;;;;;;16.00;54.10;;;;;;5038502;27;93667;-50
2023/10/03 05:35:54;;;;;;;;;;;16.00;54.10;;;;;;5036765;28;93370;-47
2023/10/03 05:38:19;;;;;;;;;;;16.00;54.10;;;;;;5043391;28;92154;-47
2023/10/03 05:40:47;;;;;;;;;;;16.00;54.10;;;;;;5037521;27;92445;-53
2023/10/03 05:43:12;;;;;;;;;;;16.00;54.10;;;;;;5036505;27;93401;-51
2023/10/03 05:45:39;;;;;;;;;;;16.00;54.20;;;;;;5039975;27;93773;-51
2023/10/03 05:48:05;;;;;;;;;;;15.90;54.10;;;;;;5038996;27;94124;-48
2023/10/03 05:50:32;;;;;;;;;;;16.00;54.20;;;;;;5038233;27;92082;-51
2023/10/03 05:52:59;;;;;;;;;;;15.90;54.10;;;;;;5037395;27;92719;-48
2023/10/03 05:55:25;;;;;;;;;;;15.90;54.10;;;;;;5038268;27;94146;-52
2023/10/03 05:57:50;;;;;;;;;;;16.00;54.20;;;;;;5040722;27;92111;-47
2023/10/03 06:00:17;;;;;;;;;;;16.00;54.20;;;;;;5036949;27;93249;-53
2023/10/03 06:02:43;;;;;;;;;;;15.90;54.10;;;;;;5035042;27;92243;-55
2023/10/03 06:05:09;;;;;;;;;;;16.00;54.20;;;;;;5035223;28;93910;-51
2023/10/03 06:07:36;;;;;;;;;;;15.90;54.20;;;;;;5038464;27;93171;-51
2023/10/03 06:10:04;;;;;;;;;;;15.90;54.20;;;;;;5037420;27;92221;-51
2023/10/03 06:12:30;;;;;;;;;;;15.90;54.20;;;;;;5040171;27;92926;-52
2023/10/03 06:14:55;;;;;;;;;;;15.90;54.30;;;;;;5038279;27;93392;-52
2023/10/03 06:17:21;;;;;;;;;;;15.90;54.30;;;;;;5039407;27;92867;-52
2023/10/03 06:19:46;;;;;;;;;;;15.90;54.20;;;;;;5040241;27;93849;-47
2023/10/03 06:22:12;;;;;;;;;;;15.90;54.30;;;;;;5038831;28;92320;-52
2023/10/03 06:24:38;;;;;;;;;;;15.90;54.30;;;;;;5039269;28;92642;-48
2023/10/03 06:27:07;;;;;;;;;;;15.90;54.30;;;;;;5036426;27;93766;-49
2023/10/03 06:29:34;;;;;;;;;;;15.90;54.40;;;;;;5037407;27;93324;-50
2023/10/03 06:32:00;;;;;;;;;;;15.80;54.40;;;;;;5038935;28;92946;-52
2023/10/03 06:34:25;;;;;;;;;;;15.80;54.50;;;;;;5037919;27;93229;-50
2023/10/03 06:36:51;;;;;;;;;;;15.80;54.50;;;;;;5040111;27;91464;-49
2023/10/03 06:39:16;;;;;;;;;;;15.80;54.50;;;;;;5034646;27;92884;-48
2023/10/03 06:41:42;;;;;;;;;;;15.80;54.50;;;;;;5041362;28;93332;-48
2023/10/03 06:44:07;;;;;;;;;;;15.80;55.10;;;;;;5036220;27;93960;-48
2023/10/03 06:46:34;;;;;;;;;;;15.80;54.50;;;;;;5035425;27;95070;-52
2023/10/03 06:49:00;;;;;;;;;;;15.90;54.50;;;;;;5035192;27;92515;-51
2023/10/03 06:51:26;;;;;;;;;;;15.80;54.50;;;;;;5038846;27;93452;-49
2023/10/03 06:53:52;;;;;;;;;;;15.80;54.60;;;;;;5036350;27;94191;-53
2023/10/03 06:56:19;;;;;;;;;;;15.80;54.60;;;;;;5035801;27;92223;-48
2023/10/03 06:58:46;;;;;;;;;;;15.80;54.60;;;;;;5034480;27;93744;-48
2023/10/03 07:01:12;;;;;;;;;;;15.80;54.70;;;;;;5038428;27;92474;-50
2023/10/03 07:03:40;;;;;;;;;;;15.80;54.60;;;;;;5039299;27;93065;-49
2023/10/03 07:06:06;;;;;;;;;;;15.80;54.60;;;;;;5032759;27;93175;-47
2023/10/03 07:08:31;;;;;;;;;;;15.80;54.60;;;;;;5038270;27;93048;-53
2023/10/03 07:10:57;;;;;;;;;;;15.80;54.70;;;;;;5038092;28;93145;-47
2023/10/03 07:13:26;;;;;;;;;;;15.80;54.70;;;;;;5036027;27;94789;-52
2023/10/03 07:15:52;;;;;;;;;;;15.80;54.70;;;;;;5038270;27;92275;-49
2023/10/03 07:18:18;;;;;;;;;;;15.80;54.80;;;;;;5038866;27;93039;-52
2023/10/03 07:20:43;;;;;;;;;;;15.80;54.80;;;;;;5036971;27;93883;-49
2023/10/03 07:23:09;;;;;;;;;;;15.80;54.80;;;;;;5039430;27;92193;-52
2023/10/03 07:25:34;;;;;;;;;;;15.80;54.80;;;;;;5037779;28;92972;-52
2023/10/03 07:28:00;;;;;;;;;;;15.80;54.80;;;;;;5038342;28;92221;-52
2023/10/03 07:30:25;;;;;;;;;;;15.80;55.00;;;;;;5037750;27;92627;-50
2023/10/03 07:32:51;;;;;;;;;;;15.80;55.00;;;;;;5034747;27;95695;-51
2023/10/03 07:35:19;;;;;;;;;;;15.80;54.90;;;;;;5036723;27;92194;-50
2023/10/03 07:37:45;;;;;;;;;;;15.80;55.60;;;;;;5034252;28;92635;-50
2023/10/03 07:40:10;;;;;;;;;;;15.80;54.90;;;;;;5036009;27;93395;-51
2023/10/03 07:42:38;;;;;;;;;;;15.80;54.90;;;;;;5036257;27;93309;-47
2023/10/03 07:45:05;;;;;;;;;;;15.80;55.00;;;;;;5038157;27;94343;-54
2023/10/03 07:47:31;;;;;;;;;;;15.80;55.00;;;;;;5038421;28;92139;-52
2023/10/03 07:49:59;;;;;;;;;;;15.70;55.10;;;;;;5037125;27;92722;-50
2023/10/03 07:52:27;;;;;;;;;;;15.70;55.10;;;;;;5033760;27;93001;-51
2023/10/03 07:54:56;;;;;;;;;;;15.70;55.20;;;;;;5038021;28;92643;-50
2023/10/03 07:57:25;;;;;;;;;;;15.70;55.20;;;;;;5039516;27;93358;-53
2023/10/03 07:59:51;;;;;;;;;;;15.70;55.20;;;;;;5034646;27;94474;-49
2023/10/03 08:02:17;;;;;;;;;;;15.70;55.20;;;;;;5033607;27;92348;-54
2023/10/03 08:04:45;;;;;;;;;;;15.70;55.20;;;;;;5036645;28;93222;-51
2023/10/03 08:07:21;;;;;;;;;;;15.70;55.20;;;;;;5044599;27;94292;-49
2023/10/03 08:09:47;;;;;;;;;;;15.70;55.20;;;;;;5040007;27;94054;-52
2023/10/03 08:12:13;;;;;;;;;;;15.60;55.30;;;;;;5039753;27;93661;-50
2023/10/03 08:14:39;;;;;;;;;;;15.60;55.50;;;;;;5041431;27;91413;-49
2023/10/03 08:17:05;;;;;;;;;;;15.70;55.40;;;;;;5040409;27;92139;-49
2023/10/03 08:19:30;;;;;;;;;;;15.70;55.40;;;;;;5038891;27;93352;-50
2023/10/03 08:21:58;;;;;;;;;;;15.70;55.50;;;;;;5040264;28;93299;-48
2023/10/03 08:24:25;;;;;;;;;;;15.70;55.50;;;;;;5041454;28;93534;-50
2023/10/03 08:26:51;;;;;;;;;;;15.70;55.50;;;;;;5038072;27;93504;-51
2023/10/03 08:29:23;;;;;;;;;;;15.70;55.60;;;;;;5041248;27;93281;-53
2023/10/03 08:31:59;;;;;;;;;;;15.70;55.60;;;;;;5039538;28;94307;-51
2023/10/03 08:34:25;;;;;;;;;;;15.70;55.80;;;;;;5039816;27;92257;-51
2023/10/03 08:36:54;;;;;;;;;;;15.60;55.70;;;;;;5041343;27;94973;-49
2023/10/03 08:39:23;;;;;;;;;;;15.70;55.80;;;;;;5039406;27;93915;-53
2023/10/03 08:41:49;;;;;;;;;;;15.70;55.70;;;;;;5040809;27;92222;-52
2023/10/03 08:44:15;;;;;;;;;;;15.70;55.90;;;;;;5041255;27;92711;-50
2023/10/03 08:46:44;;;;;;;;;;;15.70;55.90;;;;;;5036840;27;95013;-52
2023/10/03 08:49:11;;;;;;;;;;;15.70;56.00;;;;;;5037559;28;92259;-49
2023/10/03 08:51:37;;;;;;;;;;;15.70;55.90;;;;;;5043485;28;93257;-51
2023/10/03 08:54:10;;;;;;;;;;;15.60;55.90;;;;;;5038782;27;92941;-49
2023/10/03 08:56:36;;;;;;;;;;;15.60;56.00;;;;;;5035310;28;94169;-51
2023/10/03 08:59:08;;;;;;;;;;;15.70;56.00;;;;;;5040223;27;94886;-51
2023/10/03 09:01:34;;;;;;;;;;;15.60;55.90;;;;;;5040365;27;92307;-50
2023/10/03 09:04:05;;;;;;;;;;;15.70;56.10;;;;;;5046475;27;92849;-50
2023/10/03 09:06:38;;;;;;;;;;;15.70;56.10;;;;;;5035784;27;94506;-50
2023/10/03 09:09:10;;;;;;;;;;;15.70;56.10;;;;;;5038024;28;92275;-53
2023/10/03 09:11:37;;;;;;;;;;;15.70;56.10;;;;;;5038703;27;94385;-51
2023/10/03 09:14:03;;;;;;;;;;;15.70;56.20;;;;;;5040974;27;93201;-51
2023/10/03 09:16:28;;;;;;;;;;;15.70;56.10;;;;;;5035899;27;92306;-54
2023/10/03 09:18:57;;;;;;;;;;;15.70;56.10;;;;;;5039596;27;93509;-53
2023/10/03 09:21:27;;;;;;;;;;;15.70;56.10;;;;;;5036623;27;92777;-51
2023/10/03 09:24:01;;;;;;;;;;;15.70;56.20;;;;;;5041277;27;93892;-50
2023/10/03 09:26:45;;;;;;;;;;;15.70;56.20;;;;;;5036584;28;93589;-49
2023/10/03 09:29:30;;;;;;;;;;;15.80;56.10;;;;;;5040231;27;91564;-49
2023/10/03 09:31:59;;;;;;;;;;;15.70;56.10;;;;;;5037102;27;92084;-50
2023/10/03 09:34:30;;;;;;;;;;;15.80;56.20;;;;;;5036122;27;93755;-52
2023/10/03 09:37:02;;;;;;;;;;;15.80;56.20;;;;;;5043040;27;93027;-49
2023/10/03 09:39:48;;;;;;;;;;;15.80;56.20;;;;;;5038056;27;93772;-49
2023/10/03 09:42:16;;;;;;;;;;;15.80;56.20;;;;;;5037292;27;92260;-52
2023/10/03 09:44:43;;;;;;;;;;;15.80;56.20;;;;;;5038813;28;94424;-53
2023/10/03 09:47:08;;;;;;;;;;;15.80;56.30;;;;;;5038738;27;94378;-49
2023/10/03 09:49:38;;;;;;;;;;;15.80;56.30;;;;;;5038594;27;92253;-51
2023/10/03 09:52:17;;;;;;;;;;;15.80;56.40;;;;;;5039596;27;94328;-50
2023/10/03 09:54:43;;;;;;;;;;;15.80;56.30;;;;;;5040065;27;92744;-51
2023/10/03 09:57:18;;;;;;;;;;;15.80;56.40;;;;;;5031979;27;92252;-51
2023/10/03 09:59:48;;;;;;;;;;;15.80;56.40;;;;;;5040561;27;93244;-53
2023/10/03 10:02:14;;;;;;;;;;;15.90;56.40;;;;;;5037585;27;93291;-50
2023/10/03 10:04:41;;;;;;;;;;;15.90;56.40;;;;;;5039326;27;94905;-51
2023/10/03 10:07:27;;;;;;;;;;;15.90;56.40;;;;;;5036901;27;93156;-52
2023/10/03 10:10:07;;;;;;;;;;;15.90;56.30;;;;;;5037984;27;92982;-52
2023/10/03 10:12:37;;;;;;;;;;;15.90;56.40;;;;;;5040085;27;92364;-50
2023/10/03 10:17:56;;;;;;;;;;;15.90;56.30;;;;;;5033903;27;92389;-50
2023/10/03 10:20:32;;;;;;;;;;;15.90;56.40;;;;;;5039127;27;94257;-47
2023/10/03 10:25:42;;;;;;;;;;;15.90;56.40;;;;;;5031844;28;92457;-49
2023/10/03 10:28:08;;;;;;;;;;;16.00;56.50;;;;;;5036363;27;93757;-51
2023/10/03 10:30:34;;;;;;;;;;;15.90;56.50;;;;;;5037115;28;92124;-53
2023/10/03 10:33:18;;;;;;;;;;;16.00;56.50;;;;;;5039255;28;93026;-48
2023/10/03 10:35:59;;;;;;;;;;;16.00;56.30;;;;;;5035582;27;94447;-51
2023/10/03 10:38:31;;;;;;;;;;;16.00;56.30;;;;;;5033606;28;92223;-50
2023/10/03 10:41:29;;;;;;;;;;;16.00;56.40;;;;;;5039442;28;92983;-54
2023/10/03 10:44:05;;;;;;;;;;;16.00;56.40;;;;;;5026622;27;94070;-50
2023/10/03 10:46:36;;;;;;;;;;;16.10;56.40;;;;;;5037133;27;93962;-53
2023/10/03 10:49:06;;;;;;;;;;;16.00;56.30;;;;;;5038008;27;94026;-53
2023/10/03 10:51:32;;;;;;;;;;;16.00;56.30;;;;;;5035612;28;92196;-51
2023/10/03 10:53:58;;;;;;;;;;;16.10;56.40;;;;;;5036818;27;93559;-50
2023/10/03 10:56:25;;;;;;;;;;;16.10;56.30;;;;;;5034583;27;93218;-52
2023/10/03 10:59:04;;;;;;;;;;;16.10;56.30;;;;;;5039175;28;92733;-52
2023/10/03 11:01:35;;;;;;;;;;;16.10;56.20;;;;;;5034451;28;92612;-50
2023/10/03 11:04:02;;;;;;;;;;;16.20;56.20;;;;;;5039413;27;93510;-52
2023/10/03 11:06:28;;;;;;;;;;;16.20;56.30;;;;;;5040926;27;93447;-51
2023/10/03 11:08:54;;;;;;;;;;;16.20;56.20;;;;;;5038472;28;93852;-52
2023/10/03 11:11:20;;;;;;;;;;;16.20;56.10;;;;;;5038450;27;91681;-50
2023/10/03 11:13:49;;;;;;;;;;;16.20;56.10;;;;;;5042988;27;93458;-50
2023/10/03 11:16:22;;;;;;;;;;;16.30;56.20;;;;;;5035964;27;93237;-48
2023/10/03 11:18:49;;;;;;;;;;;16.30;56.20;;;;;;5038135;28;93166;-51
2023/10/03 11:21:16;;;;;;;;;;;16.30;56.30;;;;;;5039694;27;92634;-53
2023/10/03 11:24:01;;;;;;;;;;;16.30;56.30;;;;;;5037202;27;94110;-51
2023/10/03 11:26:39;;;;;;;;;;;16.30;56.30;;;;;;5037158;28;92171;-48
2023/10/03 11:29:05;;;;;;;;;;;16.30;56.30;;;;;;5041091;28;92606;-50
2023/10/03 11:31:36;;;;;;;;;;;16.40;56.40;;;;;;5035808;27;93821;-51
2023/10/03 11:34:01;;;;;;;;;;;16.40;56.30;;;;;;5035389;27;93012;-49
2023/10/03 11:36:38;;;;;;;;;;;16.40;56.40;;;;;;5038562;28;92515;-48
2023/10/03 11:39:04;;;;;;;;;;;16.40;56.90;;;;;;5037635;27;92570;-48
2023/10/03 11:41:30;;;;;;;;;;;16.40;56.30;;;;;;5037557;27;93045;-49
2023/10/03 11:43:56;;;;;;;;;;;16.40;56.30;;;;;;5036370;27;94120;-48
2023/10/03 11:46:21;;;;;;;;;;;16.40;56.20;;;;;;5041677;28;92285;-49
2023/10/03 11:48:55;;;;;;;;;;;16.40;56.20;;;;;;5040676;27;92583;-49
2023/10/03 11:51:20;;;;;;;;;;;16.50;56.10;;;;;;5041927;27;94665;-47
2023/10/03 11:53:46;;;;;;;;;;;16.50;56.20;;;;;;5038546;27;93789;-53
2023/10/03 11:56:11;;;;;;;;;;;16.50;56.20;;;;;;5041624;28;93240;-49
2023/10/03 11:58:37;;;;;;;;;;;16.50;56.20;;;;;;5042841;27;92215;-52
2023/10/03 12:01:03;;;;;;;;;;;16.50;56.10;;;;;;5037814;27;92634;-52
2023/10/03 12:03:30;;;;;;;;;;;16.60;56.20;;;;;;5039695;27;94930;-50
2023/10/03 12:05:57;;;;;;;;;;;16.60;56.20;;;;;;5041111;27;92254;-53
2023/10/03 12:08:23;;;;;;;;;;;16.60;56.10;;;;;;5041042;27;94114;-50
2023/10/03 12:10:49;;;;;;;;;;;16.60;56.10;;;;;;5040397;27;94285;-51
2023/10/03 12:13:15;;;;;;;;;;;16.60;56.20;;;;;;5041604;27;92828;-51
2023/10/03 12:15:45;;;;;;;;;;;16.60;56.10;;;;;;5040505;27;93223;-51
2023/10/03 12:18:15;;;;;;;;;;;16.70;56.10;;;;;;5041072;27;93235;-52
2023/10/03 12:20:41;;;;;;;;;;;16.70;56.10;;;;;;5038134;27;92578;-51
2023/10/03 12:23:07;;;;;;;;;;;16.70;56.00;;;;;;5041022;28;94183;-53
2023/10/03 12:25:33;;;;;;;;;;;16.70;56.00;;;;;;5040879;27;91538;-50
2023/10/03 12:27:58;;;;;;;;;;;16.70;56.10;;;;;;5039243;27;92361;-54
2023/10/03 12:30:24;;;;;;;;;;;16.70;56.00;;;;;;5036949;27;93605;-49
2023/10/03 12:32:50;;;;;;;;;;;16.70;56.00;;;;;;5040144;27;93187;-49
2023/10/03 12:35:16;;;;;;;;;;;16.80;56.00;;;;;;5039406;27;93123;-50
2023/10/03 12:37:44;;;;;;;;;;;16.80;56.10;;;;;;5038934;27;92301;-50
2023/10/03 12:40:16;;;;;;;;;;;16.80;56.10;;;;;;5038715;28;93904;-51
2023/10/03 12:42:51;;;;;;;;;;;16.80;56.00;;;;;;5040747;27;93314;-48
2023/10/03 12:45:17;;;;;;;;;;;16.80;55.90;;;;;;5039219;27;92328;-51
2023/10/03 12:47:47;;;;;;;;;;;16.80;56.00;;;;;;5036522;27;92783;-52
2023/10/03 12:50:16;;;;;;;;;;;16.80;55.90;;;;;;5040953;27;94392;-50
2023/10/03 12:52:42;;;;;;;;;;;16.90;56.00;;;;;;5039658;27;92193;-51
2023/10/03 12:55:09;;;;;;;;;;;16.90;56.00;;;;;;5042546;27;92962;-52
2023/10/03 12:57:36;;;;;;;;;;;16.90;56.00;;;;;;5037731;27;94921;-50
2023/10/03 13:00:02;;;;;;;;;;;16.90;55.90;;;;;;5040792;27;93617;-52
2023/10/03 13:02:28;;;;;;;;;;;16.90;55.90;;;;;;5039198;27;93210;-48
2023/10/03 13:04:54;;;;;;;;;;;16.90;55.90;;;;;;5038854;27;92263;-53
2023/10/03 13:07:20;;;;;;;;;;;16.90;55.90;;;;;;5038227;27;92668;-53
2023/10/03 13:09:46;;;;;;;;;;;17.00;55.90;;;;;;5040499;28;93581;-51
2023/10/03 13:12:12;;;;;;;;;;;17.00;55.80;;;;;;5039957;27;92214;-48
2023/10/03 13:14:38;;;;;;;;;;;17.00;55.80;;;;;;5039453;27;93209;-53
2023/10/03 13:17:04;;;;;;;;;;;17.00;55.90;;;;;;5040005;28;93328;-52
2023/10/03 13:19:30;;;;;;;;;;;17.00;55.90;;;;;;5040528;27;94413;-48
2023/10/03 13:21:56;;;;;;;;;;;17.10;56.00;;;;;;5040169;27;95341;-52
2023/10/03 13:24:22;;;;;;;;;;;17.10;55.80;;;;;;5039010;27;94395;-48
2023/10/03 13:26:48;;;;;;;;;;;17.10;55.60;;;;;;5036377;27;94281;-50
2023/10/03 13:29:13;;;;;;;;;;;17.10;55.70;;;;;;5040029;28;93483;-53
2023/10/03 13:31:38;;;;;;;;;;;17.10;55.80;;;;;;5038926;27;93990;-50
2023/10/03 13:34:05;;;;;;;;;;;17.10;55.70;;;;;;5038882;27;92547;-48
2023/10/03 13:36:30;;;;;;;;;;;17.10;55.60;;;;;;5039485;27;94466;-52
2023/10/03 13:38:58;;;;;;;;;;;17.20;55.80;;;;;;5043989;28;91423;-53
2023/10/03 13:41:23;;;;;;;;;;;17.20;55.70;;;;;;5038365;27;94093;-53
2023/10/03 13:43:49;;;;;;;;;;;17.20;55.80;;;;;;5035197;27;92308;-50
2023/10/03 13:46:16;;;;;;;;;;;17.20;55.80;;;;;;5038927;28;94339;-50
2023/10/03 13:48:42;;;;;;;;;;;17.20;55.60;;;;;;5038615;27;93597;-49
2023/10/03 13:51:07;;;;;;;;;;;17.20;55.70;;;;;;5040537;27;92488;-48
2023/10/03 13:53:33;;;;;;;;;;;17.30;55.80;;;;;;5035634;27;92583;-50
2023/10/03 13:55:59;;;;;;;;;;;17.30;55.90;;;;;;5039628;28;93708;-51
2023/10/03 13:58:29;;;;;;;;;;;17.30;55.70;;;;;;5039110;27;93071;-49
2023/10/03 14:00:55;;;;;;;;;;;17.30;55.90;;;;;;5039818;27;92659;-49
2023/10/03 14:03:20;;;;;;;;;;;17.30;55.70;;;;;;5036094;27;92032;-53
2023/10/03 14:05:46;;;;;;;;;;;17.30;55.70;;;;;;5039936;27;92036;-49
2023/10/03 14:08:11;;;;;;;;;;;17.30;56.30;;;;;;5037600;27;93391;-53
2023/10/03 14:10:43;;;;;;;;;;;17.40;55.60;;;;;;5036689;27;93268;-50
2023/10/03 14:13:10;;;;;;;;;;;17.30;55.60;;;;;;5039330;27;93438;-53
2023/10/03 14:15:43;;;;;;;;;;;17.40;55.80;;;;;;5038791;27;94673;-52
2023/10/03 14:18:11;;;;;;;;;;;17.40;55.70;;;;;;5035732;27;92226;-50
2023/10/03 14:20:39;;;;;;;;;;;17.40;55.90;;;;;;5038063;27;93336;-50
2023/10/03 14:23:05;;;;;;;;;;;17.40;55.80;;;;;;5039578;28;92511;-49
2023/10/03 14:25:30;;;;;;;;;;;17.40;55.70;;;;;;5038668;27;94478;-47